createdAt,value
2023-02-28T00:00:23.283Z,100868.28
2023-02-28T00:02:50.099Z,100874.34
2023-02-28T00:05:19.242Z,100868.28
2023-02-28T00:07:46.675Z,100865.69
2023-02-28T00:10:16.361Z,100874.63
2023-02-28T00:12:43.119Z,100873.78
2023-02-28T00:15:11.466Z,100875.41
2023-02-28T00:22:03.050Z,100867.97
2023-02-28T00:24:29.791Z,100870.28
2023-02-28T00:26:56.480Z,100878.22
2023-02-28T00:29:23.152Z,100872.03
2023-02-28T00:31:49.909Z,100870.47
2023-02-28T00:34:16.588Z,100867.22
2023-02-28T00:36:46.341Z,100867.16
2023-02-28T00:39:13.155Z,100870.44
2023-02-28T00:41:39.793Z,100866.28
2023-02-28T00:44:07.764Z,100874.81
2023-02-28T00:46:34.521Z,100871.16
2023-02-28T00:49:01.231Z,100873.16
2023-02-28T00:51:28.287Z,100869.00
2023-02-28T00:53:57.442Z,100862.63
2023-02-28T00:56:24.456Z,100864.50
2023-02-28T00:58:51.115Z,100869.66
2023-02-28T01:01:19.737Z,100866.44
2023-02-28T01:03:46.426Z,100862.19
2023-02-28T01:06:14.464Z,100866.66
2023-02-28T01:12:30.768Z,100854.69
2023-02-28T01:14:57.678Z,100864.56
2023-02-28T01:17:24.375Z,100860.00
2023-02-28T01:19:54.572Z,100857.50
2023-02-28T01:22:21.254Z,100856.72
2023-02-28T01:24:48.818Z,100853.59
2023-02-28T01:27:15.524Z,100859.59
2023-02-28T01:29:42.232Z,100862.63
2023-02-28T01:32:09.940Z,100866.81
2023-02-28T01:34:36.654Z,100858.69
2023-02-28T01:37:04.694Z,100861.69
2023-02-28T01:39:31.407Z,100863.44
2023-02-28T01:41:58.027Z,100862.41
2023-02-28T01:44:59.717Z,100862.63
2023-02-28T01:47:46.604Z,100849.94
2023-02-28T01:50:20.839Z,100850.84
2023-02-28T01:52:49.279Z,100866.44
2023-02-28T01:55:18.009Z,100859.50
2023-02-28T01:57:49.225Z,100851.88
2023-02-28T02:00:18.161Z,100851.94
2023-02-28T02:02:48.676Z,100852.84
2023-02-28T02:05:21.589Z,100848.47
2023-02-28T02:07:51.320Z,100852.84
2023-02-28T02:10:20.835Z,100844.22
2023-02-28T02:13:14.735Z,100838.44
2023-02-28T02:16:02.105Z,100838.25
2023-02-28T02:18:40.346Z,100847.13
2023-02-28T02:21:28.712Z,100836.72
2023-02-28T02:24:23.389Z,100841.16
2023-02-28T02:27:07.244Z,100836.59
2023-02-28T02:29:46.715Z,100840.78
2023-02-28T02:32:34.645Z,100835.00
2023-02-28T02:35:26.469Z,100829.72
2023-02-28T02:38:12.247Z,100842.75
2023-02-28T02:40:51.553Z,100823.72
2023-02-28T02:43:24.075Z,100829.19
2023-02-28T02:45:55.162Z,100837.97
2023-02-28T02:48:26.645Z,100820.34
2023-02-28T02:50:59.427Z,100823.88
2023-02-28T02:53:31.498Z,100828.97
2023-02-28T02:56:02.413Z,100829.00
2023-02-28T02:58:34.937Z,100832.13
2023-02-28T03:01:03.201Z,100829.44
2023-02-28T03:03:32.130Z,100827.56
2023-02-28T03:06:01.176Z,100823.22
2023-02-28T03:08:29.238Z,100829.75
2023-02-28T03:11:02.191Z,100833.81
2023-02-28T03:13:50.927Z,100831.22
2023-02-28T03:16:34.453Z,100834.88
2023-02-28T03:19:29.534Z,100825.19
2023-02-28T03:22:10.826Z,100827.72
2023-02-28T03:24:41.557Z,100829.81
2023-02-28T03:27:13.085Z,100823.66
2023-02-28T03:29:44.658Z,100821.78
2023-02-28T03:32:22.390Z,100840.31
2023-02-28T03:35:22.694Z,100829.88
2023-02-28T03:37:58.029Z,100830.09
2023-02-28T03:40:28.935Z,100819.28
2023-02-28T03:43:00.720Z,100829.72
2023-02-28T03:45:30.699Z,100819.28
2023-02-28T03:48:02.321Z,100824.66
2023-02-28T03:50:41.065Z,100833.50
2023-02-28T03:53:10.172Z,100833.31
2023-02-28T03:55:41.740Z,100828.88
2023-02-28T03:58:21.853Z,100828.94
2023-02-28T04:00:52.055Z,100836.63
2023-02-28T04:03:18.748Z,100834.84
2023-02-28T04:05:54.837Z,100829.00
2023-02-28T04:08:22.161Z,100830.75
2023-02-28T04:10:56.819Z,100830.59
2023-02-28T04:13:23.469Z,100821.09
2023-02-28T04:15:50.624Z,100822.25
2023-02-28T04:18:17.285Z,100828.38
2023-02-28T04:20:43.954Z,100824.75
2023-02-28T04:23:10.762Z,100829.84
2023-02-28T04:25:37.456Z,100830.81
2023-02-28T04:28:04.186Z,100840.75
2023-02-28T04:30:33.587Z,100831.94
2023-02-28T04:33:00.849Z,100829.13
2023-02-28T04:35:27.770Z,100827.25
2023-02-28T04:37:54.443Z,100830.91
2023-02-28T04:40:21.098Z,100840.38
2023-02-28T04:42:47.789Z,100838.72
2023-02-28T04:45:14.573Z,100841.53
2023-02-28T04:47:41.286Z,100835.56
2023-02-28T04:50:08.697Z,100835.06
2023-02-28T04:52:35.352Z,100834.47
2023-02-28T04:55:02.692Z,100845.75
2023-02-28T04:57:29.386Z,100839.13
2023-02-28T04:59:56.302Z,100826.94
2023-02-28T05:02:24.635Z,100829.53
2023-02-28T05:04:51.300Z,100840.63
2023-02-28T05:07:17.943Z,100836.44
2023-02-28T05:09:44.544Z,100831.97
2023-02-28T05:12:11.447Z,100838.41
2023-02-28T05:14:38.094Z,100840.59
2023-02-28T05:17:04.723Z,100838.13
2023-02-28T05:19:31.547Z,100848.63
2023-02-28T05:21:58.489Z,100843.13
2023-02-28T05:24:25.263Z,100853.72
2023-02-28T05:26:53.921Z,100848.44
2023-02-28T05:29:20.996Z,100853.09
2023-02-28T05:31:48.265Z,100847.78
2023-02-28T05:34:16.651Z,100860.75
2023-02-28T05:36:43.430Z,100859.00
2023-02-28T05:39:13.524Z,100851.66
2023-02-28T05:41:42.324Z,100847.28
2023-02-28T05:44:09.582Z,100843.84
2023-02-28T05:46:36.228Z,100850.81
2023-02-28T05:49:03.077Z,100846.44
2023-02-28T05:51:30.271Z,100861.13
2023-02-28T05:54:01.285Z,100862.66
2023-02-28T05:56:28.041Z,100858.09
2023-02-28T05:58:54.752Z,100859.09
2023-02-28T06:01:35.578Z,100858.19
2023-02-28T06:04:03.106Z,100861.34
2023-02-28T06:06:30.573Z,100858.72
2023-02-28T06:08:57.510Z,100857.53
2023-02-28T06:11:28.433Z,100859.03
2023-02-28T06:13:57.430Z,100860.53
2023-02-28T06:16:25.320Z,100862.84
2023-02-28T06:18:53.524Z,100871.69
2023-02-28T06:21:20.233Z,100868.13
2023-02-28T06:23:46.907Z,100857.66
2023-02-28T06:26:13.603Z,100865.69
2023-02-28T06:28:40.302Z,100862.16
2023-02-28T06:31:11.208Z,100880.47
2023-02-28T06:33:39.059Z,100878.13
2023-02-28T06:36:06.729Z,100875.34
2023-02-28T06:38:34.015Z,100878.94
2023-02-28T06:41:02.105Z,100888.25
2023-02-28T06:43:34.195Z,100879.41
2023-02-28T06:46:03.085Z,100878.59
2023-02-28T06:48:29.799Z,100874.38
2023-02-28T06:51:23.512Z,100884.06
2023-02-28T06:53:50.329Z,100887.50
2023-02-28T06:56:18.421Z,100887.25
2023-02-28T06:58:49.858Z,100884.75
2023-02-28T07:01:16.544Z,100896.94
2023-02-28T07:03:43.466Z,100889.72
2023-02-28T07:06:10.133Z,100904.63
2023-02-28T07:08:37.001Z,100907.28
2023-02-28T07:11:04.353Z,100906.22
2023-02-28T07:13:31.197Z,100911.34
2023-02-28T07:16:03.308Z,100921.13
2023-02-28T07:18:30.384Z,100908.97
2023-02-28T07:20:57.244Z,100924.75
2023-02-28T07:23:24.154Z,100926.34
2023-02-28T07:25:51.866Z,100928.91
2023-02-28T07:28:18.534Z,100921.03
2023-02-28T07:30:45.270Z,100935.84
2023-02-28T07:33:11.986Z,100925.16
2023-02-28T07:35:38.837Z,100921.56
2023-02-28T07:38:05.669Z,100912.09
2023-02-28T07:40:32.520Z,100923.47
2023-02-28T07:43:01.348Z,100917.13
2023-02-28T07:45:29.750Z,100919.09
2023-02-28T07:47:56.733Z,100910.41
2023-02-28T07:50:25.099Z,100908.63
2023-02-28T07:52:52.872Z,100909.94
2023-02-28T07:55:19.672Z,100915.25
2023-02-28T07:57:46.344Z,100916.00
2023-02-28T08:00:14.639Z,100914.19
2023-02-28T08:02:41.521Z,100913.97
2023-02-28T08:05:08.843Z,100935.72
2023-02-28T08:07:35.536Z,100935.75
2023-02-28T08:10:02.392Z,100946.88
2023-02-28T08:12:29.061Z,100931.41
2023-02-28T08:14:55.768Z,100930.91
2023-02-28T08:17:22.981Z,100930.00
2023-02-28T08:19:49.891Z,100914.34
2023-02-28T08:22:16.617Z,100922.91
2023-02-28T08:24:44.642Z,100931.59
2023-02-28T08:27:11.476Z,100937.69
2023-02-28T08:29:39.190Z,100944.59
2023-02-28T08:32:12.534Z,100923.59
2023-02-28T08:34:48.109Z,100926.94
2023-02-28T08:37:15.061Z,100915.75
2023-02-28T08:39:41.787Z,100929.56
2023-02-28T08:42:08.653Z,100917.31
2023-02-28T08:44:35.396Z,100917.31
2023-02-28T08:47:02.056Z,100912.19
2023-02-28T08:49:29.528Z,100925.03
2023-02-28T08:51:58.050Z,100917.09
2023-02-28T08:54:25.445Z,100919.41
2023-02-28T08:56:52.105Z,100932.56
2023-02-28T08:59:18.832Z,100927.41
2023-02-28T09:01:45.618Z,100927.97
2023-02-28T09:04:14.478Z,100916.69
2023-02-28T09:06:45.355Z,100922.53
2023-02-28T09:09:12.007Z,100914.63
2023-02-28T09:11:38.676Z,100925.09
2023-02-28T09:14:05.327Z,100923.19
2023-02-28T09:16:33.790Z,100921.47
2023-02-28T09:19:01.056Z,100924.84
2023-02-28T09:21:28.346Z,100928.00
2023-02-28T09:23:55.692Z,100929.75
2023-02-28T09:26:27.063Z,100927.78
2023-02-28T09:28:55.299Z,100931.28
2023-02-28T09:31:26.840Z,100923.38
2023-02-28T09:33:55.540Z,100919.00
2023-02-28T09:36:24.974Z,100919.78
2023-02-28T09:38:54.043Z,100920.50
2023-02-28T09:41:26.595Z,100922.25
2023-02-28T09:43:59.728Z,100916.97
2023-02-28T09:46:41.562Z,100911.56
2023-02-28T09:49:13.173Z,100921.69
2023-02-28T09:52:00.054Z,100911.94
2023-02-28T09:54:29.977Z,100920.59
2023-02-28T09:56:58.064Z,100918.47
2023-02-28T09:59:43.118Z,100928.22
2023-02-28T10:02:28.431Z,100923.00
2023-02-28T10:04:58.587Z,100929.50
2023-02-28T10:07:38.747Z,100932.25
2023-02-28T10:10:24.788Z,100921.66
2023-02-28T10:12:54.754Z,100928.31
2023-02-28T10:15:23.774Z,100932.06
2023-02-28T10:17:55.765Z,100941.25
2023-02-28T10:20:38.406Z,100935.22
2023-02-28T10:23:11.080Z,100917.44
2023-02-28T10:25:38.813Z,100934.97
2023-02-28T10:28:08.422Z,100928.63
2023-02-28T10:30:37.318Z,100924.78
2023-02-28T10:33:04.482Z,100930.16
2023-02-28T10:35:31.280Z,100923.25
2023-02-28T10:38:00.317Z,100928.22
2023-02-28T10:40:30.195Z,100926.13
2023-02-28T10:42:58.035Z,100919.09
2023-02-28T10:45:25.828Z,100917.06
2023-02-28T10:48:24.261Z,100922.25
2023-02-28T10:50:50.883Z,100933.69
2023-02-28T10:53:26.654Z,100917.50
2023-02-28T10:56:11.328Z,100904.38
2023-02-28T10:58:54.833Z,100938.47
2023-02-28T11:01:21.458Z,100918.84
2023-02-28T11:03:49.044Z,100919.84
2023-02-28T11:06:24.029Z,100916.34
2023-02-28T11:08:56.570Z,100933.72
2023-02-28T11:11:25.828Z,100916.97
2023-02-28T11:13:55.628Z,100912.47
2023-02-28T11:16:22.468Z,100913.22
2023-02-28T11:18:53.216Z,100911.56
2023-02-28T11:21:34.667Z,100918.34
2023-02-28T11:24:13.262Z,100904.22
2023-02-28T11:26:44.178Z,100894.47
2023-02-28T11:29:23.722Z,100898.72
2023-02-28T11:32:13.809Z,100906.38
2023-02-28T11:34:41.698Z,100920.22
2023-02-28T11:37:17.703Z,100921.16
2023-02-28T11:39:45.873Z,100906.38
2023-02-28T11:42:21.988Z,100907.25
2023-02-28T11:44:58.266Z,100913.56
2023-02-28T11:47:46.345Z,100902.97
2023-02-28T11:50:16.028Z,100907.25
2023-02-28T11:52:57.789Z,100904.91
2023-02-28T11:55:50.379Z,100898.69
2023-02-28T11:58:35.106Z,100888.25
2023-02-28T12:01:16.731Z,100895.81
2023-02-28T12:03:50.102Z,100887.44
2023-02-28T12:06:19.738Z,100880.38
2023-02-28T12:08:58.478Z,100883.22
2023-02-28T12:11:36.197Z,100887.06
2023-02-28T12:14:16.684Z,100892.16
2023-02-28T12:16:55.301Z,100887.63
2023-02-28T12:19:26.103Z,100881.09
2023-02-28T12:22:24.805Z,100886.25
2023-02-28T12:25:10.146Z,100876.44
2023-02-28T12:27:44.268Z,100874.47
2023-02-28T12:30:19.353Z,100881.41
2023-02-28T12:32:52.676Z,100868.91
2023-02-28T12:35:20.633Z,100872.81
2023-02-28T12:38:04.245Z,100868.91
2023-02-28T12:40:40.434Z,100861.88
2023-02-28T12:43:08.554Z,100867.13
2023-02-28T12:45:46.291Z,100862.19
2023-02-28T12:48:16.584Z,100863.44
2023-02-28T12:50:43.660Z,100880.72
2023-02-28T12:53:40.716Z,100875.78
2023-02-28T12:56:36.921Z,100851.88
2023-02-28T12:59:11.958Z,100854.84
2023-02-28T13:02:00.071Z,100856.44
2023-02-28T13:04:57.769Z,100853.84
2023-02-28T13:08:02.179Z,100848.75
2023-02-28T13:10:45.776Z,100870.91
2023-02-28T13:13:17.949Z,100876.75
2023-02-28T13:16:05.621Z,100855.28
2023-02-28T13:18:45.167Z,100854.63
2023-02-28T13:21:25.028Z,100856.19
2023-02-28T13:24:00.886Z,100859.94
2023-02-28T13:26:36.658Z,100869.31
2023-02-28T13:29:23.816Z,100878.13
2023-02-28T13:32:09.137Z,100857.00
2023-02-28T13:34:48.282Z,100879.25
2023-02-28T13:37:20.830Z,100869.41
2023-02-28T13:40:24.262Z,100852.06
2023-02-28T13:42:51.431Z,100852.53
2023-02-28T13:45:22.458Z,100854.38
2023-02-28T13:48:21.073Z,100852.91
2023-02-28T13:50:48.328Z,100857.13
2023-02-28T13:53:15.035Z,100874.34
2023-02-28T13:55:54.115Z,100864.47
2023-02-28T13:58:42.245Z,100859.78
2023-02-28T14:01:52.546Z,100862.41
2023-02-28T14:04:56.822Z,100859.03
2023-02-28T14:07:30.183Z,100848.31
2023-02-28T14:10:06.317Z,100857.25
2023-02-28T14:12:55.739Z,100866.78
2023-02-28T14:15:42.009Z,100851.81
2023-02-28T14:18:26.976Z,100860.69
2023-02-28T14:21:00.818Z,100853.00
2023-02-28T14:23:58.854Z,100862.31
2023-02-28T14:26:37.683Z,100844.19
2023-02-28T14:29:41.841Z,100858.16
2023-02-28T14:32:14.546Z,100857.25
2023-02-28T14:34:54.352Z,100858.44
2023-02-28T14:37:27.639Z,100842.75
2023-02-28T14:39:54.236Z,100853.47
2023-02-28T14:42:35.756Z,100846.56
2023-02-28T14:45:03.341Z,100847.16
2023-02-28T14:47:32.961Z,100869.75
2023-02-28T14:50:00.589Z,100852.47
2023-02-28T14:52:29.746Z,100867.44
2023-02-28T14:55:00.705Z,100850.03
2023-02-28T14:57:33.176Z,100868.41
2023-02-28T15:00:11.401Z,100855.34
2023-02-28T15:02:39.539Z,100850.88
2023-02-28T15:05:18.320Z,100842.63
2023-02-28T15:07:45.713Z,100851.69
2023-02-28T15:10:22.429Z,100842.16
2023-02-28T15:12:53.726Z,100834.22
2023-02-28T15:15:25.311Z,100851.59
2023-02-28T15:18:00.084Z,100834.88
2023-02-28T15:20:27.541Z,100843.03
2023-02-28T15:22:56.380Z,100846.25
2023-02-28T15:25:23.545Z,100842.75
2023-02-28T15:27:52.326Z,100863.66
2023-02-28T15:30:30.746Z,100853.72
2023-02-28T15:33:17.982Z,100834.81
2023-02-28T15:35:45.365Z,100849.78
2023-02-28T15:38:27.407Z,100840.41
2023-02-28T15:40:58.995Z,100853.38
2023-02-28T15:43:28.586Z,100844.59
2023-02-28T15:46:08.444Z,100842.22
2023-02-28T15:48:55.782Z,100837.91
2023-02-28T15:51:28.408Z,100849.25
2023-02-28T15:53:59.593Z,100842.03
2023-02-28T15:56:32.784Z,100851.50
2023-02-28T15:59:07.370Z,100852.47
2023-02-28T16:01:36.120Z,100841.06
2023-02-28T16:04:18.081Z,100841.84
2023-02-28T16:06:46.539Z,100852.66
2023-02-28T16:09:15.397Z,100839.22
2023-02-28T16:11:47.381Z,100856.00
2023-02-28T16:14:16.936Z,100851.56
2023-02-28T16:16:49.149Z,100850.09
2023-02-28T16:19:16.071Z,100842.75
2023-02-28T16:21:42.773Z,100846.31
2023-02-28T16:24:09.470Z,100848.28
2023-02-28T16:26:38.200Z,100845.59
2023-02-28T16:29:05.290Z,100858.72
2023-02-28T16:31:34.322Z,100851.59
2023-02-28T16:34:01.021Z,100853.66
2023-02-28T16:36:28.626Z,100857.97
2023-02-28T16:38:55.746Z,100861.56
2023-02-28T16:41:25.907Z,100852.59
2023-02-28T16:43:55.039Z,100870.38
2023-02-28T16:46:21.853Z,100858.75
2023-02-28T16:48:52.157Z,100865.97
2023-02-28T16:51:19.298Z,100862.31
2023-02-28T16:53:46.449Z,100859.75
2023-02-28T16:56:19.157Z,100874.88
2023-02-28T16:58:46.103Z,100879.53
2023-02-28T17:01:12.913Z,100886.97
2023-02-28T17:03:41.108Z,100885.28
2023-02-28T17:06:17.761Z,100883.63
2023-02-28T17:08:44.629Z,100887.03
2023-02-28T17:11:11.381Z,100889.97
2023-02-28T17:13:38.088Z,100894.91
2023-02-28T17:16:05.627Z,100886.97
2023-02-28T17:18:34.732Z,100897.59
2023-02-28T17:21:02.299Z,100893.25
2023-02-28T17:23:29.085Z,100896.53
2023-02-28T17:25:58.124Z,100892.47
2023-02-28T17:28:25.243Z,100894.03
2023-02-28T17:30:54.240Z,100901.03
2023-02-28T17:33:21.031Z,100900.22
2023-02-28T17:35:47.754Z,100899.25
2023-02-28T17:38:18.971Z,100907.91
2023-02-28T17:40:45.955Z,100908.69
2023-02-28T17:43:12.789Z,100909.66
2023-02-28T17:45:39.615Z,100914.19
2023-02-28T17:48:06.990Z,100913.25
2023-02-28T17:50:34.091Z,100908.22
2023-02-28T17:53:00.826Z,100917.06
2023-02-28T17:55:27.542Z,100910.84
2023-02-28T17:57:54.263Z,100914.44
2023-02-28T18:00:24.769Z,100916.16
2023-02-28T18:02:52.042Z,100923.16
2023-02-28T18:05:18.804Z,100913.56
2023-02-28T18:07:45.607Z,100911.16
2023-02-28T18:10:21.068Z,100913.09
2023-02-28T18:12:48.900Z,100907.13
2023-02-28T18:15:16.901Z,100909.81
2023-02-28T18:17:43.653Z,100908.03
2023-02-28T18:20:11.638Z,100906.44
2023-02-28T18:22:39.656Z,100907.59
2023-02-28T18:25:09.131Z,100911.00
2023-02-28T18:27:36.715Z,100908.63
2023-02-28T18:30:05.065Z,100914.59
2023-02-28T18:32:31.826Z,100911.31
2023-02-28T18:34:58.683Z,100913.09
2023-02-28T18:37:25.354Z,100910.50
2023-02-28T18:39:52.106Z,100912.97
2023-02-28T18:42:18.788Z,100910.41
2023-02-28T18:44:45.546Z,100915.97
2023-02-28T18:47:12.331Z,100914.06
2023-02-28T18:49:39.080Z,100913.94
2023-02-28T18:52:05.767Z,100912.22
2023-02-28T18:54:32.519Z,100910.63
2023-02-28T18:56:59.246Z,100908.31
2023-02-28T18:59:26.337Z,100913.56
2023-02-28T19:01:53.083Z,100911.06
2023-02-28T19:04:19.859Z,100910.81
2023-02-28T19:06:46.703Z,100913.38
2023-02-28T19:09:13.588Z,100913.38
2023-02-28T19:11:40.346Z,100917.09
2023-02-28T19:14:09.285Z,100912.66
2023-02-28T19:16:36.274Z,100918.00
2023-02-28T19:19:03.494Z,100922.50
2023-02-28T19:21:30.636Z,100922.44
2023-02-28T19:23:57.344Z,100926.94
2023-02-28T19:26:25.856Z,100920.09
2023-02-28T19:28:52.835Z,100921.84
2023-02-28T19:31:24.951Z,100924.44
2023-02-28T19:33:53.039Z,100926.94
2023-02-28T19:36:20.741Z,100926.16
2023-02-28T19:38:47.935Z,100924.44
2023-02-28T19:41:16.048Z,100923.94
2023-02-28T19:43:43.070Z,100928.31
2023-02-28T19:46:12.077Z,100934.13
2023-02-28T19:48:39.206Z,100920.31
2023-02-28T19:51:09.470Z,100927.25
2023-02-28T19:53:37.725Z,100922.91
2023-02-28T19:56:04.929Z,100923.66
2023-02-28T19:58:32.113Z,100933.50
2023-02-28T20:01:01.252Z,100932.34
2023-02-28T20:03:28.061Z,100922.28
2023-02-28T20:06:02.401Z,100917.75
2023-02-28T20:08:29.391Z,100920.59
2023-02-28T20:10:56.195Z,100919.03
2023-02-28T20:13:27.994Z,100913.84
2023-02-28T20:15:55.042Z,100917.16
2023-02-28T20:18:21.816Z,100919.78
2023-02-28T20:20:48.557Z,100922.53
2023-02-28T20:23:15.359Z,100916.31
2023-02-28T20:25:42.364Z,100915.44
2023-02-28T20:28:09.334Z,100915.66
2023-02-28T20:30:38.978Z,100915.56
2023-02-28T20:33:05.810Z,100906.16
2023-02-28T20:35:33.780Z,100914.88
2023-02-28T20:38:00.574Z,100909.06
2023-02-28T20:40:27.285Z,100917.72
2023-02-28T20:42:55.021Z,100919.41
2023-02-28T20:45:21.812Z,100922.16
2023-02-28T20:47:48.605Z,100925.06
2023-02-28T20:50:17.111Z,100912.06
2023-02-28T20:52:44.524Z,100926.59
2023-02-28T20:55:12.464Z,100919.78
2023-02-28T20:57:39.194Z,100914.34
2023-02-28T21:00:15.145Z,100915.38
2023-02-28T21:02:42.173Z,100909.34
2023-02-28T21:05:09.401Z,100919.09
2023-02-28T21:07:36.349Z,100910.19
2023-02-28T21:10:03.282Z,100912.06
2023-02-28T21:12:30.119Z,100914.91
2023-02-28T21:14:56.871Z,100919.44
2023-02-28T21:17:23.622Z,100913.19
2023-02-28T21:19:50.320Z,100916.75
2023-02-28T21:22:17.257Z,100911.44
2023-02-28T21:24:44.063Z,100923.13
2023-02-28T21:27:10.740Z,100912.63
2023-02-28T21:29:37.504Z,100906.81
2023-02-28T21:32:04.452Z,100916.34
2023-02-28T21:34:31.213Z,100914.13
2023-02-28T21:36:57.914Z,100917.09
2023-02-28T21:39:26.932Z,100916.19
2023-02-28T21:41:54.064Z,100921.59
2023-02-28T21:44:22.565Z,100921.31
2023-02-28T21:46:52.117Z,100912.13
2023-02-28T21:49:18.958Z,100923.41
2023-02-28T21:51:45.735Z,100920.06
2023-02-28T21:54:12.688Z,100919.91
2023-02-28T21:56:39.508Z,100920.88
2023-02-28T21:59:09.270Z,100916.94
2023-02-28T22:01:38.408Z,100922.13
2023-02-28T22:04:08.690Z,100913.47
2023-02-28T22:06:39.327Z,100917.78
2023-02-28T22:09:08.063Z,100919.00
2023-02-28T22:11:36.328Z,100914.44
2023-02-28T22:14:03.083Z,100912.78
2023-02-28T22:16:37.768Z,100916.31
2023-02-28T22:19:11.413Z,100909.50
2023-02-28T22:21:39.457Z,100922.44
2023-02-28T22:24:06.524Z,100918.94
2023-02-28T22:26:33.520Z,100918.94
2023-02-28T22:29:00.373Z,100921.72
2023-02-28T22:31:32.636Z,100920.91
2023-02-28T22:34:02.572Z,100919.34
2023-02-28T22:36:30.413Z,100912.47
2023-02-28T22:38:58.387Z,100895.94
2023-02-28T22:41:26.570Z,100902.06
2023-02-28T22:43:58.831Z,100896.59
2023-02-28T22:46:26.805Z,100908.91
2023-02-28T22:48:53.846Z,100901.38
2023-02-28T22:51:23.980Z,100919.78
2023-02-28T22:53:52.015Z,100902.00
2023-02-28T22:56:20.579Z,100899.81
2023-02-28T22:58:55.809Z,100904.78
2023-02-28T23:01:25.644Z,100907.38
2023-02-28T23:03:52.923Z,100910.94
2023-02-28T23:06:28.523Z,100912.44
2023-02-28T23:08:57.912Z,100924.22
2023-02-28T23:11:27.924Z,100919.44
2023-02-28T23:14:00.720Z,100917.22
2023-02-28T23:16:42.819Z,100918.63
2023-02-28T23:19:15.371Z,100921.81
2023-02-28T23:21:42.898Z,100916.41
2023-02-28T23:24:11.378Z,100919.13
2023-02-28T23:26:41.685Z,100917.25
2023-02-28T23:29:08.958Z,100926.13
2023-02-28T23:31:36.514Z,100936.44
2023-02-28T23:34:03.300Z,100927.78
2023-02-28T23:36:30.328Z,100922.63
2023-02-28T23:38:57.529Z,100927.03
2023-02-28T23:41:24.514Z,100921.94
2023-02-28T23:43:52.666Z,100923.91
2023-02-28T23:46:21.088Z,100929.00
2023-02-28T23:48:47.945Z,100926.66
2023-02-28T23:51:17.169Z,100918.56
2023-02-28T23:53:49.838Z,100911.53
2023-02-28T23:56:19.309Z,100913.06
2023-02-28T23:58:47.104Z,100906.06
